createdAt,value
2018-09-21T00:00:31.667Z,24
2018-09-21T00:01:03.701Z,23.99
2018-09-21T00:01:35.815Z,24
2018-09-21T00:02:07.900Z,24.03
2018-09-21T00:02:39.998Z,23.99
2018-09-21T00:03:12.020Z,23.99
2018-09-21T00:03:44.090Z,24.04
2018-09-21T00:04:16.135Z,24.02
2018-09-21T00:04:48.332Z,24.04
2018-09-21T00:05:20.402Z,23.99
2018-09-21T00:05:52.461Z,23.97
2018-09-21T00:06:24.508Z,24.04
2018-09-21T00:06:56.601Z,24
2018-09-21T00:07:28.698Z,23.97
2018-09-21T00:08:00.793Z,23.97
2018-09-21T00:08:32.877Z,23.99
2018-09-21T00:09:04.991Z,23.96
2018-09-21T00:09:37.066Z,23.97
2018-09-21T00:10:09.047Z,24.02
2018-09-21T00:10:41.111Z,23.96
2018-09-21T00:11:13.185Z,24.03
2018-09-21T00:11:45.263Z,23.97
2018-09-21T00:12:17.351Z,23.97
2018-09-21T00:12:49.358Z,23.93
2018-09-21T00:13:21.474Z,24.03
2018-09-21T00:13:53.524Z,24
2018-09-21T00:14:25.588Z,24.03
2018-09-21T00:14:57.659Z,23.97
2018-09-21T00:15:29.733Z,23.99
2018-09-21T00:16:01.800Z,24.02
2018-09-21T00:16:33.902Z,23.94
2018-09-21T00:17:05.958Z,24.02
2018-09-21T00:17:38.033Z,23.92
2018-09-21T00:18:10.101Z,23.94
2018-09-21T00:18:42.163Z,24.02
2018-09-21T00:19:14.229Z,23.93
2018-09-21T00:19:46.278Z,23.97
2018-09-21T00:20:18.491Z,23.94
2018-09-21T00:20:50.671Z,23.93
2018-09-21T00:21:22.867Z,23.96
2018-09-21T00:21:54.975Z,23.93
2018-09-21T00:22:27.161Z,23.99
2018-09-21T00:22:59.238Z,23.97
2018-09-21T00:23:31.393Z,23.93
2018-09-21T00:24:03.542Z,23.93
2018-09-21T00:24:35.610Z,23.93
2018-09-21T00:25:07.705Z,23.94
2018-09-21T00:25:39.747Z,23.96
2018-09-21T00:26:11.803Z,23.94
2018-09-21T00:26:43.868Z,23.93
2018-09-21T00:27:15.899Z,23.94
2018-09-21T00:27:47.943Z,23.89
2018-09-21T00:28:20.124Z,23.89
2018-09-21T00:28:52.135Z,24
2018-09-21T00:29:24.206Z,24
2018-09-21T00:29:56.265Z,23.94
2018-09-21T00:30:28.375Z,23.99
2018-09-21T00:31:00.385Z,23.99
2018-09-21T00:31:32.472Z,23.97
2018-09-21T00:32:04.613Z,23.9
2018-09-21T00:32:36.701Z,23.93
2018-09-21T00:33:08.802Z,23.93
2018-09-21T00:33:40.820Z,23.93
2018-09-21T00:34:12.880Z,23.89
2018-09-21T00:34:44.994Z,23.93
2018-09-21T00:35:17.077Z,23.99
2018-09-21T00:35:49.183Z,23.96
2018-09-21T00:36:21.261Z,23.96
2018-09-21T00:36:53.322Z,24.02
2018-09-21T00:37:25.391Z,23.93
2018-09-21T00:37:57.555Z,23.96
2018-09-21T00:38:29.621Z,23.96
2018-09-21T00:39:01.670Z,24
2018-09-21T00:39:33.722Z,23.99
2018-09-21T00:40:05.808Z,23.99
2018-09-21T00:40:37.843Z,23.99
2018-09-21T00:41:09.879Z,23.94
2018-09-21T00:41:41.934Z,23.92
2018-09-21T00:42:14.006Z,23.99
2018-09-21T00:42:46.152Z,23.96
2018-09-21T00:43:18.215Z,23.89
2018-09-21T00:43:50.279Z,23.96
2018-09-21T00:44:22.333Z,23.99
2018-09-21T00:44:54.402Z,24
2018-09-21T00:45:26.474Z,23.94
2018-09-21T00:45:58.572Z,23.92
2018-09-21T00:46:30.708Z,23.99
2018-09-21T00:47:02.835Z,23.9
2018-09-21T00:47:34.872Z,23.92
2018-09-21T00:48:06.927Z,23.97
2018-09-21T00:48:38.975Z,23.9
2018-09-21T00:49:11.047Z,23.9
2018-09-21T00:49:43.133Z,23.93
2018-09-21T00:50:15.185Z,23.93
2018-09-21T00:50:47.237Z,23.93
2018-09-21T00:51:19.288Z,23.89
2018-09-21T00:51:51.372Z,23.93
2018-09-21T00:52:23.447Z,23.9
2018-09-21T00:52:55.515Z,23.9
2018-09-21T00:53:27.601Z,23.97
2018-09-21T00:53:59.637Z,23.89
2018-09-21T00:54:31.689Z,23.94
2018-09-21T00:55:03.773Z,23.89
2018-09-21T00:55:35.822Z,23.93
2018-09-21T00:56:07.893Z,23.89
2018-09-21T00:56:39.950Z,23.92
2018-09-21T00:57:12.004Z,23.93
2018-09-21T00:57:44.130Z,23.92
2018-09-21T00:58:16.166Z,23.92
2018-09-21T00:58:48.260Z,23.96
2018-09-21T00:59:20.359Z,23.9
2018-09-21T00:59:52.383Z,23.92
2018-09-21T01:00:24.586Z,23.89
2018-09-21T01:00:56.653Z,23.92
2018-09-21T01:01:28.669Z,23.94
2018-09-21T01:02:00.727Z,23.9
2018-09-21T01:02:32.814Z,23.9
2018-09-21T01:03:05.799Z,23.85
2018-09-21T01:03:37.842Z,23.89
2018-09-21T01:04:09.889Z,23.96
2018-09-21T01:04:42.006Z,23.94
2018-09-21T01:05:14.052Z,23.89
2018-09-21T01:05:46.124Z,23.89
2018-09-21T01:06:18.219Z,23.93
2018-09-21T01:06:50.310Z,23.94
2018-09-21T01:07:22.378Z,23.87
2018-09-21T01:07:54.427Z,23.9
2018-09-21T01:08:26.488Z,23.89
2018-09-21T01:08:58.558Z,23.94
2018-09-21T01:09:30.571Z,23.93
2018-09-21T01:10:02.641Z,23.92
2018-09-21T01:10:34.692Z,23.9
2018-09-21T01:11:06.774Z,23.87
2018-09-21T01:11:38.815Z,23.9
2018-09-21T01:12:10.876Z,23.92
2018-09-21T01:12:42.918Z,23.89
2018-09-21T01:13:15.770Z,23.89
2018-09-21T01:13:47.819Z,23.87
2018-09-21T01:14:19.866Z,23.89
2018-09-21T01:14:51.877Z,23.87
2018-09-21T01:15:23.929Z,23.96
2018-09-21T01:15:55.999Z,23.9
2018-09-21T01:16:28.067Z,23.99
2018-09-21T01:17:00.148Z,23.87
2018-09-21T01:17:32.203Z,23.9
2018-09-21T01:18:04.296Z,23.79
2018-09-21T01:18:36.332Z,23.87
2018-09-21T01:19:08.456Z,23.89
2018-09-21T01:19:40.535Z,23.89
2018-09-21T01:20:12.634Z,23.79
2018-09-21T01:20:44.691Z,23.77
2018-09-21T01:21:16.771Z,23.79
2018-09-21T01:21:48.800Z,23.92
2018-09-21T01:22:20.864Z,23.96
2018-09-21T01:22:52.933Z,23.81
2018-09-21T01:23:25.009Z,23.89
2018-09-21T01:23:57.220Z,23.84
2018-09-21T01:24:29.369Z,23.78
2018-09-21T01:25:01.398Z,23.82
2018-09-21T01:25:33.411Z,23.79
2018-09-21T01:26:05.487Z,23.74
2018-09-21T01:26:37.625Z,23.75
2018-09-21T01:27:09.717Z,23.92
2018-09-21T01:27:41.735Z,23.84
2018-09-21T01:28:13.757Z,23.84
2018-09-21T01:28:45.857Z,23.77
2018-09-21T01:29:18.022Z,23.82
2018-09-21T01:29:50.118Z,23.77
2018-09-21T01:30:22.330Z,23.79
2018-09-21T01:30:54.383Z,23.84
2018-09-21T01:31:26.388Z,23.81
2018-09-21T01:31:58.432Z,23.78
2018-09-21T01:32:30.481Z,23.87
2018-09-21T01:33:02.545Z,23.78
2018-09-21T01:33:34.623Z,23.84
2018-09-21T01:34:06.617Z,23.84
2018-09-21T01:34:38.656Z,23.77
2018-09-21T01:35:10.736Z,23.81
2018-09-21T01:35:42.793Z,23.84
2018-09-21T01:36:14.896Z,23.78
2018-09-21T01:36:46.974Z,23.85
2018-09-21T01:37:19.024Z,23.77
2018-09-21T01:37:51.091Z,23.79
2018-09-21T01:38:23.148Z,23.84
2018-09-21T01:38:55.219Z,23.77
2018-09-21T01:39:27.301Z,23.79
2018-09-21T01:39:59.364Z,23.81
2018-09-21T01:40:32.090Z,23.77
2018-09-21T01:41:04.164Z,23.81
2018-09-21T01:41:37.575Z,23.78
2018-09-21T01:42:09.643Z,23.85
2018-09-21T01:42:41.701Z,23.81
2018-09-21T01:43:13.770Z,23.84
2018-09-21T01:43:45.899Z,23.85
2018-09-21T01:44:17.935Z,23.79
2018-09-21T01:44:49.992Z,23.77
2018-09-21T01:45:22.069Z,23.82
2018-09-21T01:45:54.110Z,23.81
2018-09-21T01:46:26.191Z,23.81
2018-09-21T01:46:58.221Z,23.84
2018-09-21T01:47:30.331Z,23.79
2018-09-21T01:48:02.412Z,23.79
2018-09-21T01:48:34.496Z,23.84
2018-09-21T01:49:06.624Z,23.79
2018-09-21T01:49:38.711Z,23.78
2018-09-21T01:50:10.805Z,23.78
2018-09-21T01:50:42.847Z,23.77
2018-09-21T01:51:14.893Z,23.75
2018-09-21T01:51:46.933Z,23.82
2018-09-21T01:52:19.013Z,23.78
2018-09-21T01:52:51.099Z,23.82
2018-09-21T01:53:23.143Z,23.81
2018-09-21T01:53:55.239Z,23.85
2018-09-21T01:54:27.346Z,23.79
2018-09-21T01:54:59.446Z,23.77
2018-09-21T01:55:31.577Z,23.78
2018-09-21T01:56:03.597Z,23.82
2018-09-21T01:56:35.667Z,23.75
2018-09-21T01:57:07.746Z,23.84
2018-09-21T01:57:39.839Z,23.77
2018-09-21T01:58:11.936Z,23.77
2018-09-21T01:58:44.003Z,23.78
2018-09-21T01:59:16.024Z,23.81
2018-09-21T01:59:48.161Z,23.75
2018-09-21T02:00:21.174Z,23.82
2018-09-21T02:00:53.243Z,23.77
2018-09-21T02:01:25.336Z,23.79
2018-09-21T02:01:57.447Z,23.82
2018-09-21T02:02:29.506Z,23.77
2018-09-21T02:03:01.631Z,23.82
2018-09-21T02:03:33.664Z,23.77
2018-09-21T02:04:05.756Z,23.79
2018-09-21T02:04:37.847Z,23.84
2018-09-21T02:05:09.947Z,23.79
2018-09-21T02:05:42.123Z,23.78
2018-09-21T02:06:14.251Z,23.78
2018-09-21T02:06:46.344Z,23.75
2018-09-21T02:07:18.426Z,23.77
2018-09-21T02:07:50.521Z,23.74
2018-09-21T02:08:22.629Z,23.75
2018-09-21T02:08:54.729Z,23.82
2018-09-21T02:09:26.782Z,23.75
2018-09-21T02:09:58.871Z,23.77
2018-09-21T02:10:31.013Z,23.77
2018-09-21T02:11:03.065Z,23.79
2018-09-21T02:11:35.138Z,23.75
2018-09-21T02:12:07.211Z,23.78
2018-09-21T02:12:39.279Z,23.77
2018-09-21T02:13:11.407Z,23.75
2018-09-21T02:13:43.465Z,23.77
2018-09-21T02:14:15.509Z,23.75
2018-09-21T02:14:47.576Z,23.78
2018-09-21T02:15:19.674Z,23.75
2018-09-21T02:15:51.761Z,23.75
2018-09-21T02:16:23.901Z,23.75
2018-09-21T02:16:55.962Z,23.77
2018-09-21T02:17:27.998Z,23.75
2018-09-21T02:18:00.100Z,23.71
2018-09-21T02:18:32.131Z,23.77
2018-09-21T02:19:04.254Z,23.79
2018-09-21T02:19:36.340Z,23.75
2018-09-21T02:20:08.401Z,23.75
2018-09-21T02:20:40.480Z,23.75
2018-09-21T02:21:12.667Z,23.79
2018-09-21T02:21:44.836Z,23.75
2018-09-21T02:22:16.894Z,23.77
2018-09-21T02:22:48.936Z,23.74
2018-09-21T02:23:21.005Z,23.77
2018-09-21T02:23:53.676Z,23.75
2018-09-21T02:24:25.773Z,23.75
2018-09-21T02:24:57.889Z,23.75
2018-09-21T02:25:29.950Z,23.74
2018-09-21T02:26:01.992Z,23.77
2018-09-21T02:26:34.068Z,23.71
2018-09-21T02:27:06.148Z,23.74
2018-09-21T02:27:38.416Z,23.77
2018-09-21T02:28:10.488Z,23.74
2018-09-21T02:28:42.579Z,23.71
2018-09-21T02:29:14.584Z,23.75
2018-09-21T02:29:46.649Z,23.72
2018-09-21T02:30:18.751Z,23.74
2018-09-21T02:30:50.823Z,23.72
2018-09-21T02:31:22.903Z,23.78
2018-09-21T02:31:55.005Z,23.72
2018-09-21T02:32:27.062Z,23.75
2018-09-21T02:32:59.150Z,23.75
2018-09-21T02:33:31.218Z,23.66
2018-09-21T02:34:03.288Z,23.72
2018-09-21T02:34:35.383Z,23.72
2018-09-21T02:35:07.451Z,23.72
2018-09-21T02:35:39.675Z,23.7
2018-09-21T02:36:11.745Z,23.72
2018-09-21T02:36:43.794Z,23.75
2018-09-21T02:37:15.861Z,23.74
2018-09-21T02:37:47.914Z,23.72
2018-09-21T02:38:20.053Z,23.64
2018-09-21T02:38:52.102Z,23.72
2018-09-21T02:39:24.162Z,23.74
2018-09-21T02:39:56.304Z,23.71
2018-09-21T02:40:28.404Z,23.72
2018-09-21T02:41:00.546Z,23.72
2018-09-21T02:41:32.716Z,23.75
2018-09-21T02:42:05.084Z,23.75
2018-09-21T02:42:37.144Z,23.71
2018-09-21T02:43:09.299Z,23.71
2018-09-21T02:43:41.377Z,23.74
2018-09-21T02:44:13.410Z,23.74
2018-09-21T02:44:45.467Z,23.7
2018-09-21T02:45:17.468Z,23.72
2018-09-21T02:45:49.539Z,23.71
2018-09-21T02:46:21.604Z,23.75
2018-09-21T02:46:53.636Z,23.71
2018-09-21T02:47:25.654Z,23.74
2018-09-21T02:47:57.693Z,23.74
2018-09-21T02:48:29.713Z,23.72
2018-09-21T02:49:01.812Z,23.67
2018-09-21T02:49:34.015Z,23.7
2018-09-21T02:50:06.128Z,23.7
2018-09-21T02:50:38.143Z,23.64
2018-09-21T02:51:10.250Z,23.71
2018-09-21T02:51:42.358Z,23.75
2018-09-21T02:52:15.366Z,23.71
2018-09-21T02:52:47.413Z,23.72
2018-09-21T02:53:19.471Z,23.72
2018-09-21T02:53:51.652Z,23.72
2018-09-21T02:54:23.691Z,23.71
2018-09-21T02:54:55.762Z,23.66
2018-09-21T02:55:27.808Z,23.67
2018-09-21T02:55:59.920Z,23.66
2018-09-21T02:56:32.013Z,23.66
2018-09-21T02:57:04.154Z,23.7
2018-09-21T02:57:36.349Z,23.67
2018-09-21T02:58:08.503Z,23.74
2018-09-21T02:58:40.534Z,23.72
2018-09-21T02:59:12.540Z,23.71
2018-09-21T02:59:44.634Z,23.71
2018-09-21T03:00:16.730Z,23.7
2018-09-21T03:00:48.917Z,23.66
2018-09-21T03:01:21.739Z,23.72
2018-09-21T03:01:53.827Z,23.7
2018-09-21T03:02:25.847Z,23.62
2018-09-21T03:02:57.902Z,23.71
2018-09-21T03:03:29.952Z,23.66
2018-09-21T03:04:02.036Z,23.74
2018-09-21T03:04:34.169Z,23.67
2018-09-21T03:05:06.264Z,23.71
2018-09-21T03:05:38.347Z,23.66
2018-09-21T03:06:10.468Z,23.74
2018-09-21T03:06:42.503Z,23.62
2018-09-21T03:07:14.659Z,23.72
2018-09-21T03:07:46.735Z,23.7
2018-09-21T03:08:18.732Z,23.71
2018-09-21T03:08:50.777Z,23.75
2018-09-21T03:09:22.819Z,23.72
2018-09-21T03:09:54.909Z,23.72
2018-09-21T03:10:27.057Z,23.67
2018-09-21T03:10:59.154Z,23.71
2018-09-21T03:11:31.136Z,23.63
2018-09-21T03:12:03.135Z,23.64
2018-09-21T03:12:35.249Z,23.67
2018-09-21T03:13:07.381Z,23.64
2018-09-21T03:13:39.554Z,23.66
2018-09-21T03:14:11.675Z,23.64
2018-09-21T03:14:43.791Z,23.66
2018-09-21T03:15:15.923Z,23.64
2018-09-21T03:15:47.975Z,23.71
2018-09-21T03:16:20.046Z,23.71
2018-09-21T03:16:52.114Z,23.7
2018-09-21T03:17:24.143Z,23.66
2018-09-21T03:17:56.186Z,23.66
2018-09-21T03:18:28.243Z,23.71
2018-09-21T03:19:00.316Z,23.71
2018-09-21T03:19:32.387Z,23.64
2018-09-21T03:20:04.460Z,23.67
2018-09-21T03:20:36.537Z,23.67
2018-09-21T03:21:08.597Z,23.72
2018-09-21T03:21:40.697Z,23.71
2018-09-21T03:22:12.760Z,23.62
2018-09-21T03:22:44.856Z,23.7
2018-09-21T03:23:16.928Z,23.72
2018-09-21T03:23:49.004Z,23.64
2018-09-21T03:24:21.069Z,23.66
2018-09-21T03:24:53.147Z,23.67
2018-09-21T03:25:25.230Z,23.64
2018-09-21T03:25:57.287Z,23.66
2018-09-21T03:26:29.433Z,23.59
2018-09-21T03:27:01.523Z,23.7
2018-09-21T03:27:33.603Z,23.67
2018-09-21T03:28:05.681Z,23.7
2018-09-21T03:28:37.739Z,23.62
2018-09-21T03:29:09.880Z,23.71
2018-09-21T03:29:42.023Z,23.7
2018-09-21T03:30:14.158Z,23.71
2018-09-21T03:30:46.193Z,23.67
2018-09-21T03:31:18.278Z,23.63
2018-09-21T03:31:50.365Z,23.7
2018-09-21T03:32:22.468Z,23.67
2018-09-21T03:32:54.727Z,23.71
2018-09-21T03:33:26.811Z,23.71
2018-09-21T03:33:58.852Z,23.7
2018-09-21T03:34:30.888Z,23.63
2018-09-21T03:35:03.057Z,23.67
2018-09-21T03:35:35.790Z,23.7
2018-09-21T03:36:07.875Z,23.7
2018-09-21T03:36:39.931Z,23.7
2018-09-21T03:37:11.979Z,23.71
2018-09-21T03:37:44.065Z,23.67
2018-09-21T03:38:16.080Z,23.67
2018-09-21T03:38:48.157Z,23.66
2018-09-21T03:39:20.282Z,23.64
2018-09-21T03:39:52.368Z,23.63
2018-09-21T03:40:24.443Z,23.66
2018-09-21T03:40:56.515Z,23.6
2018-09-21T03:41:28.575Z,23.63
2018-09-21T03:42:00.623Z,23.63
2018-09-21T03:42:32.685Z,23.7
2018-09-21T03:43:04.755Z,23.63
2018-09-21T03:43:36.775Z,23.59
2018-09-21T03:44:08.867Z,23.57
2018-09-21T03:44:41.056Z,23.67
2018-09-21T03:45:13.198Z,23.62
2018-09-21T03:45:45.288Z,23.57
2018-09-21T03:46:17.358Z,23.67
2018-09-21T03:46:49.423Z,23.59
2018-09-21T03:47:21.528Z,23.7
2018-09-21T03:47:53.572Z,23.64
2018-09-21T03:48:25.662Z,23.6
2018-09-21T03:48:57.716Z,23.63
2018-09-21T03:49:29.793Z,23.63
2018-09-21T03:50:01.849Z,23.62
2018-09-21T03:50:33.933Z,23.62
2018-09-21T03:51:06.004Z,23.57
2018-09-21T03:51:38.093Z,23.64
2018-09-21T03:52:10.221Z,23.7
2018-09-21T03:52:42.297Z,23.64
2018-09-21T03:53:14.369Z,23.64
2018-09-21T03:53:46.417Z,23.6
2018-09-21T03:54:18.513Z,23.62
2018-09-21T03:54:50.602Z,23.63
2018-09-21T03:55:23.328Z,23.62
2018-09-21T03:55:55.378Z,23.7
2018-09-21T03:56:27.423Z,23.64
2018-09-21T03:56:59.491Z,23.6
2018-09-21T03:57:31.541Z,23.63
2018-09-21T03:58:03.625Z,23.59
2018-09-21T03:58:35.673Z,23.63
2018-09-21T03:59:07.826Z,23.6
2018-09-21T03:59:39.846Z,23.62
2018-09-21T04:00:11.900Z,23.59
2018-09-21T04:00:43.984Z,23.63
2018-09-21T04:01:16.215Z,23.7
2018-09-21T04:01:48.334Z,23.67
2018-09-21T04:02:20.425Z,23.64
2018-09-21T04:02:52.505Z,23.59
2018-09-21T04:03:25.349Z,23.62
2018-09-21T04:03:57.404Z,23.56
2018-09-21T04:04:29.470Z,23.6
2018-09-21T04:05:01.575Z,23.64
2018-09-21T04:05:33.676Z,23.63
2018-09-21T04:06:05.760Z,23.59
2018-09-21T04:06:37.945Z,23.62
2018-09-21T04:07:10.005Z,23.62
2018-09-21T04:07:42.000Z,23.59
2018-09-21T04:08:14.001Z,23.62
2018-09-21T04:08:46.019Z,23.6
2018-09-21T04:09:18.096Z,23.62
2018-09-21T04:09:50.191Z,23.56
2018-09-21T04:10:22.251Z,23.6
2018-09-21T04:10:54.351Z,23.6
2018-09-21T04:11:26.483Z,23.66
2018-09-21T04:11:58.576Z,23.62
2018-09-21T04:12:30.599Z,23.7
2018-09-21T04:13:02.679Z,23.59
2018-09-21T04:13:34.717Z,23.57
2018-09-21T04:14:06.789Z,23.6
2018-09-21T04:14:38.942Z,23.6
2018-09-21T04:15:11.053Z,23.62
2018-09-21T04:15:43.122Z,23.55
2018-09-21T04:16:15.159Z,23.63
2018-09-21T04:16:47.223Z,23.6
2018-09-21T04:17:19.271Z,23.57
2018-09-21T04:17:51.484Z,23.57
2018-09-21T04:18:23.639Z,23.6
2018-09-21T04:18:56.766Z,23.56
2018-09-21T04:19:28.799Z,23.57
2018-09-21T04:20:00.860Z,23.56
2018-09-21T04:20:32.912Z,23.59
2018-09-21T04:21:04.965Z,23.62
2018-09-21T04:21:37.055Z,23.63
2018-09-21T04:22:09.109Z,23.63
2018-09-21T04:22:41.134Z,23.59
2018-09-21T04:23:13.268Z,23.55
2018-09-21T04:23:45.259Z,23.48
2018-09-21T04:24:17.355Z,23.57
2018-09-21T04:24:49.414Z,23.55
2018-09-21T04:25:21.421Z,23.56
2018-09-21T04:25:53.483Z,23.6
2018-09-21T04:26:25.571Z,23.6
2018-09-21T04:26:57.651Z,23.55
2018-09-21T04:27:29.697Z,23.57
2018-09-21T04:28:01.681Z,23.57
2018-09-21T04:28:33.767Z,23.62
2018-09-21T04:29:05.871Z,23.62
2018-09-21T04:29:37.964Z,23.53
2018-09-21T04:30:10.105Z,23.62
2018-09-21T04:30:42.157Z,23.57
2018-09-21T04:31:14.213Z,23.56
2018-09-21T04:31:46.346Z,23.57
2018-09-21T04:32:18.459Z,23.64
2018-09-21T04:32:50.527Z,23.56
2018-09-21T04:33:22.594Z,23.55
2018-09-21T04:33:54.668Z,23.6
2018-09-21T04:34:26.815Z,23.57
2018-09-21T04:34:58.884Z,23.57
2018-09-21T04:35:30.919Z,23.62
2018-09-21T04:36:03.056Z,23.66
2018-09-21T04:36:35.165Z,23.57
2018-09-21T04:37:07.220Z,23.52
2018-09-21T04:37:39.405Z,23.57
2018-09-21T04:38:11.481Z,23.56
2018-09-21T04:38:43.551Z,23.5
2018-09-21T04:39:15.593Z,23.6
2018-09-21T04:39:47.645Z,23.53
2018-09-21T04:40:19.694Z,23.56
2018-09-21T04:40:51.721Z,23.56
2018-09-21T04:41:23.804Z,23.62
2018-09-21T04:41:55.964Z,23.55
2018-09-21T04:42:28.060Z,23.56
2018-09-21T04:43:00.176Z,23.57
2018-09-21T04:43:32.188Z,23.63
2018-09-21T04:44:04.248Z,23.56
2018-09-21T04:44:36.266Z,23.63
2018-09-21T04:45:08.300Z,23.6
2018-09-21T04:45:40.429Z,23.57
2018-09-21T04:46:12.486Z,23.6
2018-09-21T04:46:44.536Z,23.53
2018-09-21T04:47:16.647Z,23.57
2018-09-21T04:47:48.732Z,23.64
2018-09-21T04:48:20.740Z,23.57
2018-09-21T04:48:52.943Z,23.59
2018-09-21T04:49:25.005Z,23.6
2018-09-21T04:49:57.082Z,23.62
2018-09-21T04:50:29.189Z,23.63
2018-09-21T04:51:01.265Z,23.63
2018-09-21T04:51:33.306Z,23.55
2018-09-21T04:52:05.344Z,23.6
2018-09-21T04:52:37.419Z,23.6
2018-09-21T04:53:09.489Z,23.53
2018-09-21T04:53:41.627Z,23.55
2018-09-21T04:54:13.709Z,23.53
2018-09-21T04:54:45.796Z,23.57
2018-09-21T04:55:17.889Z,23.59
2018-09-21T04:55:49.950Z,23.53
2018-09-21T04:56:22.047Z,23.55
2018-09-21T04:56:54.130Z,23.6
2018-09-21T04:57:26.937Z,23.59
2018-09-21T04:57:59.006Z,23.57
2018-09-21T04:58:31.072Z,23.57
2018-09-21T04:59:03.168Z,23.55
2018-09-21T04:59:35.230Z,23.6
2018-09-21T05:00:07.330Z,23.56
2018-09-21T05:00:39.379Z,23.59
2018-09-21T05:01:11.425Z,23.59
2018-09-21T05:01:43.497Z,23.6
2018-09-21T05:02:15.575Z,23.55
2018-09-21T05:02:47.602Z,23.56
2018-09-21T05:03:19.665Z,23.57
2018-09-21T05:03:51.715Z,23.57
2018-09-21T05:04:23.754Z,23.57
2018-09-21T05:04:55.984Z,23.6
2018-09-21T05:05:28.012Z,23.56
2018-09-21T05:06:00.045Z,23.56
2018-09-21T05:06:32.051Z,23.6
2018-09-21T05:07:04.073Z,23.6
2018-09-21T05:07:36.129Z,23.56
2018-09-21T05:08:08.144Z,23.6
2018-09-21T05:08:40.223Z,23.6
2018-09-21T05:09:12.352Z,23.59
2018-09-21T05:09:44.383Z,23.59
2018-09-21T05:10:16.488Z,23.6
2018-09-21T05:10:48.475Z,23.63
2018-09-21T05:11:20.533Z,23.53
2018-09-21T05:11:52.572Z,23.57
2018-09-21T05:12:25.400Z,23.59
2018-09-21T05:12:57.431Z,23.59
2018-09-21T05:13:29.470Z,23.57
2018-09-21T05:14:01.524Z,23.62
2018-09-21T05:14:33.666Z,23.57
2018-09-21T05:15:05.734Z,23.57
2018-09-21T05:15:37.789Z,23.56
2018-09-21T05:16:09.891Z,23.57
2018-09-21T05:16:42.094Z,23.53
2018-09-21T05:17:14.169Z,23.64
2018-09-21T05:17:46.228Z,23.59
2018-09-21T05:18:18.281Z,23.52
2018-09-21T05:18:51.000Z,23.6
2018-09-21T05:19:23.074Z,23.57
2018-09-21T05:19:55.216Z,23.5
2018-09-21T05:20:27.285Z,23.57
2018-09-21T05:20:59.328Z,23.66
2018-09-21T05:21:31.387Z,23.59
2018-09-21T05:22:03.530Z,23.57
2018-09-21T05:22:35.593Z,23.55
2018-09-21T05:23:07.662Z,23.64
2018-09-21T05:23:39.682Z,23.57
2018-09-21T05:24:11.746Z,23.66
2018-09-21T05:24:43.815Z,23.6
2018-09-21T05:25:15.834Z,23.6
2018-09-21T05:25:47.841Z,23.64
2018-09-21T05:26:19.873Z,23.56
2018-09-21T05:26:52.042Z,23.55
2018-09-21T05:27:24.230Z,23.6
2018-09-21T05:27:56.484Z,23.6
2018-09-21T05:28:28.525Z,23.57
2018-09-21T05:29:00.603Z,23.55
2018-09-21T05:29:32.756Z,23.62
2018-09-21T05:30:04.970Z,23.66
2018-09-21T05:30:36.986Z,23.63
2018-09-21T05:31:09.090Z,23.57
2018-09-21T05:31:41.173Z,23.62
2018-09-21T05:32:13.148Z,23.64
2018-09-21T05:32:45.242Z,23.57
2018-09-21T05:33:17.281Z,23.59
2018-09-21T05:33:49.379Z,23.57
2018-09-21T05:34:21.506Z,23.57
2018-09-21T05:34:53.547Z,23.57
2018-09-21T05:35:25.716Z,23.63
2018-09-21T05:35:57.805Z,23.59
2018-09-21T05:36:30.677Z,23.7
2018-09-21T05:37:02.744Z,23.66
2018-09-21T05:37:34.953Z,23.7
2018-09-21T05:38:07.084Z,23.63
2018-09-21T05:38:39.307Z,23.62
2018-09-21T05:39:11.453Z,23.62
2018-09-21T05:39:43.483Z,23.64
2018-09-21T05:40:15.587Z,23.6
2018-09-21T05:40:47.664Z,23.63
2018-09-21T05:41:19.701Z,23.64
2018-09-21T05:41:51.864Z,23.57
2018-09-21T05:42:24.012Z,23.71
2018-09-21T05:42:56.183Z,23.6
2018-09-21T05:43:28.327Z,23.72
2018-09-21T05:44:00.491Z,23.63
2018-09-21T05:44:32.563Z,23.67
2018-09-21T05:45:04.589Z,23.63
2018-09-21T05:45:36.685Z,23.66
2018-09-21T05:46:08.805Z,23.67
2018-09-21T05:46:40.908Z,23.64
2018-09-21T05:47:16.794Z,23.67
2018-09-21T05:47:49.397Z,23.74
2018-09-21T05:48:21.528Z,23.71
2018-09-21T05:48:53.627Z,23.71
2018-09-21T05:49:25.802Z,23.64
2018-09-21T05:49:57.824Z,23.67
2018-09-21T05:50:29.835Z,23.72
2018-09-21T05:51:01.920Z,23.72
2018-09-21T05:51:34.016Z,23.67
2018-09-21T05:52:06.088Z,23.71
2018-09-21T05:52:38.174Z,23.7
2018-09-21T05:53:10.217Z,23.72
2018-09-21T05:53:42.279Z,23.71
2018-09-21T05:54:15.106Z,23.74
2018-09-21T05:54:47.132Z,23.74
2018-09-21T05:55:19.217Z,23.75
2018-09-21T05:55:51.300Z,23.72
2018-09-21T05:56:23.383Z,23.75
2018-09-21T05:56:55.583Z,23.75
2018-09-21T05:57:27.737Z,23.77
2018-09-21T05:57:59.759Z,23.79
2018-09-21T05:58:31.926Z,23.78
2018-09-21T05:59:03.977Z,23.75
2018-09-21T05:59:36.015Z,23.71
2018-09-21T06:00:08.058Z,23.75
2018-09-21T06:00:40.984Z,23.77
2018-09-21T06:01:13.061Z,23.81
2018-09-21T06:01:45.168Z,23.77
2018-09-21T06:02:17.223Z,23.85
2018-09-21T06:02:49.414Z,23.82
2018-09-21T06:03:21.471Z,23.81
2018-09-21T06:03:53.572Z,23.87
2018-09-21T06:04:25.653Z,23.77
2018-09-21T06:04:57.708Z,23.89
2018-09-21T06:05:29.860Z,23.77
2018-09-21T06:06:01.871Z,23.79
2018-09-21T06:06:33.911Z,23.84
2018-09-21T06:07:06.003Z,23.85
2018-09-21T06:07:38.094Z,23.85
2018-09-21T06:08:10.241Z,23.89
2018-09-21T06:08:42.347Z,23.85
2018-09-21T06:09:14.388Z,23.89
2018-09-21T06:09:46.565Z,23.93
2018-09-21T06:10:18.611Z,23.96
2018-09-21T06:10:50.712Z,23.92
2018-09-21T06:11:22.798Z,23.9
2018-09-21T06:11:54.793Z,23.89
2018-09-21T06:12:26.994Z,23.9
2018-09-21T06:12:59.108Z,23.89
2018-09-21T06:13:31.118Z,23.94
2018-09-21T06:14:03.250Z,23.94
2018-09-21T06:14:35.300Z,23.85
2018-09-21T06:15:07.389Z,23.94
2018-09-21T06:15:39.474Z,23.92
2018-09-21T06:16:11.589Z,23.9
2018-09-21T06:16:43.625Z,23.92
2018-09-21T06:17:15.718Z,23.93
2018-09-21T06:17:47.783Z,23.97
2018-09-21T06:18:19.842Z,23.94
2018-09-21T06:18:51.882Z,23.92
2018-09-21T06:19:23.992Z,23.9
2018-09-21T06:19:56.199Z,24
2018-09-21T06:20:28.309Z,23.93
2018-09-21T06:21:00.414Z,23.96
2018-09-21T06:21:32.453Z,23.96
2018-09-21T06:22:04.482Z,23.89
2018-09-21T06:22:44.980Z,23.96
2018-09-21T06:23:08.715Z,23.92
2018-09-21T06:23:40.732Z,23.9
2018-09-21T06:24:12.747Z,24.02
2018-09-21T06:24:44.830Z,23.93
2018-09-21T06:25:16.874Z,23.99
2018-09-21T06:25:48.967Z,23.97
2018-09-21T06:26:21.033Z,24
2018-09-21T06:26:53.045Z,24
2018-09-21T06:27:25.325Z,23.97
2018-09-21T06:27:57.453Z,24.02
2018-09-21T06:28:29.471Z,23.99
2018-09-21T06:29:01.551Z,23.97
2018-09-21T06:29:33.616Z,24.03
2018-09-21T06:30:05.690Z,24.02
2018-09-21T06:30:37.723Z,24.09
2018-09-21T06:31:09.799Z,24.08
2018-09-21T06:31:41.862Z,24.07
2018-09-21T06:32:13.916Z,24.11
2018-09-21T06:32:45.972Z,24.04
2018-09-21T06:33:18.160Z,24.07
2018-09-21T06:33:50.237Z,24.07
2018-09-21T06:34:22.294Z,24.02
2018-09-21T06:34:54.305Z,24.09
2018-09-21T06:35:26.446Z,24.17
2018-09-21T06:35:58.573Z,24.12
2018-09-21T06:36:30.736Z,24.11
2018-09-21T06:37:02.872Z,24.07
2018-09-21T06:37:34.938Z,24.15
2018-09-21T06:38:07.013Z,24.14
2018-09-21T06:38:39.030Z,24.12
2018-09-21T06:39:11.092Z,24.15
2018-09-21T06:39:43.138Z,24.15
2018-09-21T06:40:15.191Z,24.14
2018-09-21T06:40:47.259Z,24.14
2018-09-21T06:41:19.304Z,24.19
2018-09-21T06:41:51.352Z,24.09
2018-09-21T06:42:23.590Z,24.19
2018-09-21T06:42:55.735Z,24.17
2018-09-21T06:43:27.826Z,24.22
2018-09-21T06:43:59.863Z,24.15
2018-09-21T06:44:32.111Z,24.18
2018-09-21T06:45:04.239Z,24.21
2018-09-21T06:45:36.335Z,24.18
2018-09-21T06:46:08.391Z,24.12
2018-09-21T06:46:40.511Z,24.15
2018-09-21T06:47:12.687Z,24.17
2018-09-21T06:47:44.768Z,24.17
2018-09-21T06:48:16.848Z,24.19
2018-09-21T06:48:48.926Z,24.18
2018-09-21T06:49:21.023Z,24.22
2018-09-21T06:49:53.118Z,24.24
2018-09-21T06:50:25.310Z,24.26
2018-09-21T06:50:57.340Z,24.21
2018-09-21T06:51:29.409Z,24.24
2018-09-21T06:52:01.455Z,24.21
2018-09-21T06:52:33.541Z,24.21
2018-09-21T06:53:05.639Z,24.24
2018-09-21T06:53:37.657Z,24.26
2018-09-21T06:54:09.682Z,24.26
2018-09-21T06:54:41.696Z,24.24
2018-09-21T06:55:14.676Z,24.26
2018-09-21T06:55:46.793Z,24.29